Amlwch, United Kingdom

11:28 PM BST on August 02, 2015 (GMT +0100)
Nebo | | Change Station
CLOSE
Current Station
Personal Weather Station
Location: Amlwch, WALES
Elevation: 507 ft
Nearby Weather Stations

Elev 507 ft 53.39 °N, 4.30 °W | Updated 26 seconds ago

Clear
Clear
66.6 °F
Feels Like 66.6 °F
N
12.0
Wind Variable Wind from SE
Gusts 17.0 mph

Today
High -- | Low -- °F
--% Chance of Precip.
Yesterday
High -- | Low -- °F
Precip. -- in
5:34 AM 9:11 PM
Waning Gibbous, 91% visible
Pressure 29.71 in
Visibility -9999.0 miles
Clouds
Dew Point 50 °F
Humidity 56%
Rainfall 0.07 in
Snow Depth Not available.
UV Not available.
Pollen Not available.
Air Quality Not available.
Flu Activity Not available.
METAR EGOV 022150Z 14015KT CAVOK 19/10 Q1006 BLU

More Conditions Fewer Conditions

Pressure 29.71 in
Visibility -9999.0 miles
Clouds
Dew Point 50 °F
Humidity 56%
Rainfall 0.07 in
Snow Depth Not available.
UV Not available.
Pollen Not available.
Air Quality Not available.
Flu Activity Not available.
METAR EGOV 022150Z 14015KT CAVOK 19/10 Q1006 BLU

More Conditions Fewer Conditions

10-Day Weather Forecast

×

Almanac

Astronomy

Aug. 02, 2015 Rise Set
Actual Time
Civil Twilight
Nautical Twilight
Astronomical Twilight
Moon
Length of Visible Light
Length of Day
Tomorrow will be .
, % of the Moon is Illuminated

Today's Extremes

Country Highs Country Lows

Community

WunderPhotos

Upload Photos

1,843,400 photos uploaded!

WunderBlogs® & News

Nearby

Air Quality

  Air Quality AQ Index Pollutant
Not available.

Snow Depth

Station Depth Elevation

Earthquake Activity

City Distance Mag. Time & Date
Minimum magnitude displayed is 2.5.

Coastal Water Temperatures

Place Temperature

Stations

Nearby Weather Stations

Station Location Temp. Windchill Dew Point Humidity Wind Precip. Elev Updated Type